sensor_id;sensor_type;location;lat;lon;timestamp;temperature;humidity
2957;DHT22;1488;51.548;7.222;2023-04-03T00:00:38;19.10;83.90
2957;DHT22;1488;51.548;7.222;2023-04-03T00:03:07;19.10;84.00
2957;DHT22;1488;51.548;7.222;2023-04-03T00:05:33;19.10;83.90
2957;DHT22;1488;51.548;7.222;2023-04-03T00:08:00;19.10;84.00
2957;DHT22;1488;51.548;7.222;2023-04-03T00:10:30;19.10;84.10
2957;DHT22;1488;51.548;7.222;2023-04-03T00:12:56;19.10;84.00
2957;DHT22;1488;51.548;7.222;2023-04-03T00:15:23;19.10;84.20
2957;DHT22;1488;51.548;7.222;2023-04-03T00:17:50;19.10;83.40
2957;DHT22;1488;51.548;7.222;2023-04-03T00:20:18;19.10;83.40
2957;DHT22;1488;51.548;7.222;2023-04-03T00:22:45;19.10;83.30
2957;DHT22;1488;51.548;7.222;2023-04-03T00:25:12;19.10;83.30
2957;DHT22;1488;51.548;7.222;2023-04-03T00:27:39;19.20;83.40
2957;DHT22;1488;51.548;7.222;2023-04-03T00:30:15;19.00;83.30
2957;DHT22;1488;51.548;7.222;2023-04-03T00:32:42;19.00;83.30
2957;DHT22;1488;51.548;7.222;2023-04-03T00:35:09;19.00;83.10
2957;DHT22;1488;51.548;7.222;2023-04-03T00:37:37;19.00;83.30
2957;DHT22;1488;51.548;7.222;2023-04-03T00:40:06;19.30;83.60
2957;DHT22;1488;51.548;7.222;2023-04-03T00:42:33;19.00;83.20
2957;DHT22;1488;51.548;7.222;2023-04-03T00:45:23;19.00;83.50
2957;DHT22;1488;51.548;7.222;2023-04-03T00:47:51;19.00;83.70
2957;DHT22;1488;51.548;7.222;2023-04-03T00:50:18;19.00;83.30
2957;DHT22;1488;51.548;7.222;2023-04-03T00:52:47;19.00;83.30
2957;DHT22;1488;51.548;7.222;2023-04-03T00:55:15;19.00;83.10
2957;DHT22;1488;51.548;7.222;2023-04-03T00:57:42;19.00;83.10
2957;DHT22;1488;51.548;7.222;2023-04-03T01:00:12;19.00;83.90
2957;DHT22;1488;51.548;7.222;2023-04-03T01:02:40;19.00;83.10
2957;DHT22;1488;51.548;7.222;2023-04-03T01:05:08;19.00;83.20
2957;DHT22;1488;51.548;7.222;2023-04-03T01:07:35;19.00;83.20
2957;DHT22;1488;51.548;7.222;2023-04-03T01:10:06;19.00;83.10
2957;DHT22;1488;51.548;7.222;2023-04-03T01:12:35;19.00;83.10
2957;DHT22;1488;51.548;7.222;2023-04-03T01:15:04;19.00;83.10
2957;DHT22;1488;51.548;7.222;2023-04-03T01:17:33;19.00;83.30
2957;DHT22;1488;51.548;7.222;2023-04-03T01:23:11;19.00;83.10
2957;DHT22;1488;51.548;7.222;2023-04-03T01:25:43;18.90;83.00
2957;DHT22;1488;51.548;7.222;2023-04-03T01:28:13;18.90;82.90
2957;DHT22;1488;51.548;7.222;2023-04-03T01:30:44;18.90;83.00
2957;DHT22;1488;51.548;7.222;2023-04-03T01:33:14;18.90;83.00
2957;DHT22;1488;51.548;7.222;2023-04-03T01:35:40;18.90;83.10
2957;DHT22;1488;51.548;7.222;2023-04-03T01:38:07;19.10;83.50
2957;DHT22;1488;51.548;7.222;2023-04-03T01:40:34;18.90;82.80
2957;DHT22;1488;51.548;7.222;2023-04-03T01:43:01;18.90;82.90
2957;DHT22;1488;51.548;7.222;2023-04-03T01:45:28;19.10;82.90
2957;DHT22;1488;51.548;7.222;2023-04-03T01:47:54;18.90;82.80
2957;DHT22;1488;51.548;7.222;2023-04-03T01:50:23;18.90;82.80
2957;DHT22;1488;51.548;7.222;2023-04-03T01:52:49;18.90;82.80
2957;DHT22;1488;51.548;7.222;2023-04-03T01:55:16;18.90;82.80
2957;DHT22;1488;51.548;7.222;2023-04-03T01:57:43;18.90;82.70
2957;DHT22;1488;51.548;7.222;2023-04-03T02:00:10;18.90;82.80
2957;DHT22;1488;51.548;7.222;2023-04-03T02:02:38;18.90;82.80
2957;DHT22;1488;51.548;7.222;2023-04-03T02:05:05;18.90;83.00
2957;DHT22;1488;51.548;7.222;2023-04-03T02:07:33;18.90;82.90
2957;DHT22;1488;51.548;7.222;2023-04-03T02:10:00;19.10;83.00
2957;DHT22;1488;51.548;7.222;2023-04-03T02:12:27;18.90;82.70
2957;DHT22;1488;51.548;7.222;2023-04-03T02:14:54;18.80;82.70
2957;DHT22;1488;51.548;7.222;2023-04-03T02:17:20;19.00;82.90
2957;DHT22;1488;51.548;7.222;2023-04-03T02:19:47;19.10;83.00
2957;DHT22;1488;51.548;7.222;2023-04-03T02:22:14;18.90;82.80
2957;DHT22;1488;51.548;7.222;2023-04-03T02:24:42;19.10;83.10
2957;DHT22;1488;51.548;7.222;2023-04-03T02:27:10;18.80;82.70
2957;DHT22;1488;51.548;7.222;2023-04-03T02:29:37;18.90;83.00
2957;DHT22;1488;51.548;7.222;2023-04-03T02:32:04;18.80;82.40
2957;DHT22;1488;51.548;7.222;2023-04-03T02:34:31;18.80;82.80
2957;DHT22;1488;51.548;7.222;2023-04-03T02:36:58;18.80;82.70
2957;DHT22;1488;51.548;7.222;2023-04-03T02:39:25;18.80;82.80
2957;DHT22;1488;51.548;7.222;2023-04-03T02:41:53;18.80;82.90
2957;DHT22;1488;51.548;7.222;2023-04-03T02:44:19;18.80;82.80
2957;DHT22;1488;51.548;7.222;2023-04-03T02:46:46;18.80;83.00
2957;DHT22;1488;51.548;7.222;2023-04-03T02:49:13;18.80;84.10
2957;DHT22;1488;51.548;7.222;2023-04-03T02:51:41;18.80;83.30
2957;DHT22;1488;51.548;7.222;2023-04-03T02:54:08;18.80;83.30
2957;DHT22;1488;51.548;7.222;2023-04-03T02:56:34;18.80;83.30
2957;DHT22;1488;51.548;7.222;2023-04-03T02:59:03;18.80;83.40
2957;DHT22;1488;51.548;7.222;2023-04-03T03:01:30;18.80;83.30
2957;DHT22;1488;51.548;7.222;2023-04-03T03:03:58;18.80;83.80
2957;DHT22;1488;51.548;7.222;2023-04-03T03:06:25;18.80;83.80
2957;DHT22;1488;51.548;7.222;2023-04-03T03:08:52;18.80;83.60
2957;DHT22;1488;51.548;7.222;2023-04-03T03:11:19;18.80;83.40
2957;DHT22;1488;51.548;7.222;2023-04-03T03:13:46;18.80;83.40
2957;DHT22;1488;51.548;7.222;2023-04-03T03:16:14;18.70;83.70
2957;DHT22;1488;51.548;7.222;2023-04-03T03:18:41;18.80;83.60
2957;DHT22;1488;51.548;7.222;2023-04-03T03:21:09;18.70;83.40
2957;DHT22;1488;51.548;7.222;2023-04-03T03:23:36;18.90;83.50
2957;DHT22;1488;51.548;7.222;2023-04-03T03:26:05;18.70;83.30
2957;DHT22;1488;51.548;7.222;2023-04-03T03:28:32;18.70;83.30
2957;DHT22;1488;51.548;7.222;2023-04-03T03:30:59;18.70;83.50
2957;DHT22;1488;51.548;7.222;2023-04-03T03:33:27;18.70;83.40
2957;DHT22;1488;51.548;7.222;2023-04-03T03:35:55;18.70;83.10
2957;DHT22;1488;51.548;7.222;2023-04-03T03:38:22;18.70;83.10
2957;DHT22;1488;51.548;7.222;2023-04-03T03:40:49;18.70;83.20
2957;DHT22;1488;51.548;7.222;2023-04-03T03:43:16;18.70;83.20
2957;DHT22;1488;51.548;7.222;2023-04-03T03:45:43;18.90;83.70
2957;DHT22;1488;51.548;7.222;2023-04-03T03:48:11;18.70;83.30
2957;DHT22;1488;51.548;7.222;2023-04-03T03:50:39;18.70;83.40
2957;DHT22;1488;51.548;7.222;2023-04-03T03:53:06;18.70;83.50
2957;DHT22;1488;51.548;7.222;2023-04-03T03:55:32;18.70;83.10
2957;DHT22;1488;51.548;7.222;2023-04-03T03:57:59;18.70;83.20
2957;DHT22;1488;51.548;7.222;2023-04-03T04:00:26;18.80;83.30
2957;DHT22;1488;51.548;7.222;2023-04-03T04:02:53;18.70;83.20
2957;DHT22;1488;51.548;7.222;2023-04-03T04:05:21;18.70;83.30
2957;DHT22;1488;51.548;7.222;2023-04-03T04:07:49;18.70;83.50
2957;DHT22;1488;51.548;7.222;2023-04-03T04:10:16;18.70;83.40
2957;DHT22;1488;51.548;7.222;2023-04-03T04:12:43;18.70;83.10
2957;DHT22;1488;51.548;7.222;2023-04-03T04:15:10;18.70;83.10
2957;DHT22;1488;51.548;7.222;2023-04-03T04:17:37;18.70;83.20
2957;DHT22;1488;51.548;7.222;2023-04-03T04:20:05;18.70;83.10
2957;DHT22;1488;51.548;7.222;2023-04-03T04:22:32;18.70;83.00
2957;DHT22;1488;51.548;7.222;2023-04-03T04:25:00;18.60;83.20
2957;DHT22;1488;51.548;7.222;2023-04-03T04:27:27;18.80;83.60
2957;DHT22;1488;51.548;7.222;2023-04-03T04:29:53;18.60;83.10
2957;DHT22;1488;51.548;7.222;2023-04-03T04:32:20;18.70;83.50
2957;DHT22;1488;51.548;7.222;2023-04-03T04:34:47;18.60;83.40
2957;DHT22;1488;51.548;7.222;2023-04-03T04:37:14;18.60;83.70
2957;DHT22;1488;51.548;7.222;2023-04-03T04:39:41;18.60;83.30
2957;DHT22;1488;51.548;7.222;2023-04-03T04:42:09;18.80;83.20
2957;DHT22;1488;51.548;7.222;2023-04-03T04:44:38;18.70;83.30
2957;DHT22;1488;51.548;7.222;2023-04-03T04:47:05;18.60;83.60
2957;DHT22;1488;51.548;7.222;2023-04-03T04:49:32;18.60;83.60
2957;DHT22;1488;51.548;7.222;2023-04-03T04:51:58;18.60;83.40
2957;DHT22;1488;51.548;7.222;2023-04-03T04:54:25;18.60;83.00
2957;DHT22;1488;51.548;7.222;2023-04-03T04:56:52;18.60;82.80
2957;DHT22;1488;51.548;7.222;2023-04-03T04:59:20;18.60;82.70
2957;DHT22;1488;51.548;7.222;2023-04-03T05:01:47;18.60;82.70
2957;DHT22;1488;51.548;7.222;2023-04-03T05:04:13;18.60;83.20
2957;DHT22;1488;51.548;7.222;2023-04-03T05:06:40;18.60;83.50
2957;DHT22;1488;51.548;7.222;2023-04-03T05:09:07;18.60;83.20
2957;DHT22;1488;51.548;7.222;2023-04-03T05:11:35;18.60;83.10
2957;DHT22;1488;51.548;7.222;2023-04-03T05:14:02;18.60;83.30
2957;DHT22;1488;51.548;7.222;2023-04-03T05:16:32;18.60;83.30
2957;DHT22;1488;51.548;7.222;2023-04-03T05:18:58;18.60;83.80
2957;DHT22;1488;51.548;7.222;2023-04-03T05:21:25;18.60;83.60
2957;DHT22;1488;51.548;7.222;2023-04-03T05:23:54;18.60;83.50
2957;DHT22;1488;51.548;7.222;2023-04-03T05:26:21;18.60;83.50
2957;DHT22;1488;51.548;7.222;2023-04-03T05:28:48;18.60;83.80
2957;DHT22;1488;51.548;7.222;2023-04-03T05:31:15;18.60;83.90
2957;DHT22;1488;51.548;7.222;2023-04-03T05:33:43;18.60;84.00
2957;DHT22;1488;51.548;7.222;2023-04-03T05:36:11;18.60;83.80
2957;DHT22;1488;51.548;7.222;2023-04-03T05:38:38;18.60;83.90
2957;DHT22;1488;51.548;7.222;2023-04-03T05:41:05;18.60;83.90
2957;DHT22;1488;51.548;7.222;2023-04-03T05:43:32;18.50;84.00
2957;DHT22;1488;51.548;7.222;2023-04-03T05:46:00;18.50;83.30
2957;DHT22;1488;51.548;7.222;2023-04-03T05:48:26;18.50;83.60
2957;DHT22;1488;51.548;7.222;2023-04-03T05:50:55;18.50;83.60
2957;DHT22;1488;51.548;7.222;2023-04-03T05:53:24;18.50;83.30
2957;DHT22;1488;51.548;7.222;2023-04-03T05:55:53;18.50;83.50
2957;DHT22;1488;51.548;7.222;2023-04-03T05:58:20;18.50;83.40
2957;DHT22;1488;51.548;7.222;2023-04-03T06:00:47;18.50;83.20
2957;DHT22;1488;51.548;7.222;2023-04-03T06:03:14;18.50;82.80
2957;DHT22;1488;51.548;7.222;2023-04-03T06:05:41;18.50;82.70
2957;DHT22;1488;51.548;7.222;2023-04-03T06:08:09;18.50;82.30
2957;DHT22;1488;51.548;7.222;2023-04-03T06:10:36;18.60;82.00
2957;DHT22;1488;51.548;7.222;2023-04-03T06:13:03;18.60;81.40
2957;DHT22;1488;51.548;7.222;2023-04-03T06:15:30;18.60;80.60
2957;DHT22;1488;51.548;7.222;2023-04-03T06:17:56;18.60;80.50
2957;DHT22;1488;51.548;7.222;2023-04-03T06:20:23;18.60;80.50
2957;DHT22;1488;51.548;7.222;2023-04-03T06:22:50;18.80;81.10
2957;DHT22;1488;51.548;7.222;2023-04-03T06:25:18;18.60;80.80
2957;DHT22;1488;51.548;7.222;2023-04-03T06:27:46;18.60;80.90
2957;DHT22;1488;51.548;7.222;2023-04-03T06:30:13;18.70;81.00
2957;DHT22;1488;51.548;7.222;2023-04-03T06:32:40;18.70;80.70
2957;DHT22;1488;51.548;7.222;2023-04-03T06:35:08;18.70;80.40
2957;DHT22;1488;51.548;7.222;2023-04-03T06:37:35;18.70;80.50
2957;DHT22;1488;51.548;7.222;2023-04-03T06:40:03;18.70;80.60
2957;DHT22;1488;51.548;7.222;2023-04-03T06:42:31;18.70;80.50
2957;DHT22;1488;51.548;7.222;2023-04-03T06:44:58;18.70;80.50
2957;DHT22;1488;51.548;7.222;2023-04-03T06:47:25;18.70;80.70
2957;DHT22;1488;51.548;7.222;2023-04-03T06:49:52;18.70;80.60
2957;DHT22;1488;51.548;7.222;2023-04-03T06:52:19;18.80;80.40
2957;DHT22;1488;51.548;7.222;2023-04-03T06:54:46;18.80;80.70
2957;DHT22;1488;51.548;7.222;2023-04-03T06:57:13;18.80;80.40
2957;DHT22;1488;51.548;7.222;2023-04-03T06:59:42;18.80;80.30
2957;DHT22;1488;51.548;7.222;2023-04-03T07:02:10;19.00;80.40
2957;DHT22;1488;51.548;7.222;2023-04-03T07:04:38;18.80;80.10
2957;DHT22;1488;51.548;7.222;2023-04-03T07:07:04;18.80;80.30
2957;DHT22;1488;51.548;7.222;2023-04-03T07:09:34;18.90;80.00
2957;DHT22;1488;51.548;7.222;2023-04-03T07:12:30;18.90;80.70
2957;DHT22;1488;51.548;7.222;2023-04-03T07:15:25;18.90;79.70
2957;DHT22;1488;51.548;7.222;2023-04-03T07:24:37;19.00;79.30
2957;DHT22;1488;51.548;7.222;2023-04-03T07:27:09;19.00;79.50
2957;DHT22;1488;51.548;7.222;2023-04-03T07:29:40;18.90;79.60
2957;DHT22;1488;51.548;7.222;2023-04-03T07:32:12;19.00;79.40
2957;DHT22;1488;51.548;7.222;2023-04-03T07:34:43;19.00;79.40
2957;DHT22;1488;51.548;7.222;2023-04-03T07:37:13;19.00;79.50
2957;DHT22;1488;51.548;7.222;2023-04-03T07:39:43;19.00;79.30
2957;DHT22;1488;51.548;7.222;2023-04-03T07:42:20;19.00;79.70
2957;DHT22;1488;51.548;7.222;2023-04-03T07:51:53;19.00;79.60
2957;DHT22;1488;51.548;7.222;2023-04-03T07:54:20;19.00;79.50
2957;DHT22;1488;51.548;7.222;2023-04-03T07:56:47;19.00;79.40
2957;DHT22;1488;51.548;7.222;2023-04-03T07:59:14;19.10;78.90
2957;DHT22;1488;51.548;7.222;2023-04-03T08:01:41;19.10;78.90
2957;DHT22;1488;51.548;7.222;2023-04-03T08:04:14;19.10;79.30
2957;DHT22;1488;51.548;7.222;2023-04-03T08:06:41;19.20;79.70
2957;DHT22;1488;51.548;7.222;2023-04-03T08:09:30;19.20;79.60
2957;DHT22;1488;51.548;7.222;2023-04-03T08:11:57;19.20;79.80
2957;DHT22;1488;51.548;7.222;2023-04-03T08:14:38;19.20;79.70
2957;DHT22;1488;51.548;7.222;2023-04-03T08:17:08;19.50;80.00
2957;DHT22;1488;51.548;7.222;2023-04-03T08:19:37;19.30;80.00
2957;DHT22;1488;51.548;7.222;2023-04-03T08:22:04;19.30;80.00
2957;DHT22;1488;51.548;7.222;2023-04-03T08:24:40;19.40;80.10
2957;DHT22;1488;51.548;7.222;2023-04-03T08:27:07;19.40;80.10
2957;DHT22;1488;51.548;7.222;2023-04-03T08:29:33;19.50;80.00
2957;DHT22;1488;51.548;7.222;2023-04-03T08:32:03;19.50;80.10
2957;DHT22;1488;51.548;7.222;2023-04-03T08:34:30;19.50;80.00
2957;DHT22;1488;51.548;7.222;2023-04-03T08:37:00;19.60;80.20
2957;DHT22;1488;51.548;7.222;2023-04-03T08:39:28;19.60;80.10
2957;DHT22;1488;51.548;7.222;2023-04-03T08:41:59;19.60;79.70
2957;DHT22;1488;51.548;7.222;2023-04-03T08:44:38;19.70;79.30
2957;DHT22;1488;51.548;7.222;2023-04-03T08:47:17;19.70;79.40
2957;DHT22;1488;51.548;7.222;2023-04-03T08:49:46;19.70;79.50
2957;DHT22;1488;51.548;7.222;2023-04-03T08:52:19;19.80;79.40
2957;DHT22;1488;51.548;7.222;2023-04-03T08:54:51;19.80;79.20
2957;DHT22;1488;51.548;7.222;2023-04-03T08:57:28;19.80;78.90
2957;DHT22;1488;51.548;7.222;2023-04-03T08:59:57;19.90;79.50
2957;DHT22;1488;51.548;7.222;2023-04-03T09:02:33;19.90;79.20
2957;DHT22;1488;51.548;7.222;2023-04-03T09:05:02;20.00;79.50
2957;DHT22;1488;51.548;7.222;2023-04-03T09:07:36;20.00;79.20
2957;DHT22;1488;51.548;7.222;2023-04-03T09:10:05;20.00;79.30
2957;DHT22;1488;51.548;7.222;2023-04-03T09:12:37;20.10;79.40
2957;DHT22;1488;51.548;7.222;2023-04-03T09:15:17;20.20;79.70
2957;DHT22;1488;51.548;7.222;2023-04-03T09:17:56;20.20;79.40
2957;DHT22;1488;51.548;7.222;2023-04-03T09:20:27;20.20;79.50
2957;DHT22;1488;51.548;7.222;2023-04-03T09:22:57;20.30;79.30
2957;DHT22;1488;51.548;7.222;2023-04-03T09:25:27;20.30;79.50
2957;DHT22;1488;51.548;7.222;2023-04-03T09:27:55;20.30;79.20
2957;DHT22;1488;51.548;7.222;2023-04-03T09:30:25;20.40;79.20
2957;DHT22;1488;51.548;7.222;2023-04-03T09:32:54;20.40;79.10
2957;DHT22;1488;51.548;7.222;2023-04-03T09:35:25;20.50;79.00
2957;DHT22;1488;51.548;7.222;2023-04-03T09:37:54;20.50;78.90
2957;DHT22;1488;51.548;7.222;2023-04-03T09:40:35;20.60;78.80
2957;DHT22;1488;51.548;7.222;2023-04-03T09:43:21;20.60;78.50
2957;DHT22;1488;51.548;7.222;2023-04-03T09:45:50;20.60;78.10
2957;DHT22;1488;51.548;7.222;2023-04-03T09:48:18;20.60;78.40
2957;DHT22;1488;51.548;7.222;2023-04-03T09:50:57;20.70;78.30
2957;DHT22;1488;51.548;7.222;2023-04-03T09:53:33;20.70;78.60
2957;DHT22;1488;51.548;7.222;2023-04-03T09:56:03;20.80;78.40
2957;DHT22;1488;51.548;7.222;2023-04-03T09:58:35;20.90;78.30
2957;DHT22;1488;51.548;7.222;2023-04-03T10:01:05;20.90;78.20
2957;DHT22;1488;51.548;7.222;2023-04-03T10:03:34;21.00;78.60
2957;DHT22;1488;51.548;7.222;2023-04-03T10:06:21;21.00;78.90
2957;DHT22;1488;51.548;7.222;2023-04-03T10:08:59;21.00;79.10
2957;DHT22;1488;51.548;7.222;2023-04-03T10:11:30;21.00;79.00
2957;DHT22;1488;51.548;7.222;2023-04-03T10:14:00;21.10;78.40
2957;DHT22;1488;51.548;7.222;2023-04-03T10:16:37;21.10;77.90
2957;DHT22;1488;51.548;7.222;2023-04-03T10:21:59;21.10;77.70
2957;DHT22;1488;51.548;7.222;2023-04-03T10:24:36;21.20;78.40
2957;DHT22;1488;51.548;7.222;2023-04-03T10:27:08;21.40;78.90
2957;DHT22;1488;51.548;7.222;2023-04-03T10:29:40;21.30;78.70
2957;DHT22;1488;51.548;7.222;2023-04-03T10:32:24;21.40;78.80
2957;DHT22;1488;51.548;7.222;2023-04-03T10:35:00;21.40;79.00
2957;DHT22;1488;51.548;7.222;2023-04-03T10:37:34;21.40;79.30
2957;DHT22;1488;51.548;7.222;2023-04-03T10:40:11;21.50;79.90
2957;DHT22;1488;51.548;7.222;2023-04-03T10:42:48;21.50;78.50
2957;DHT22;1488;51.548;7.222;2023-04-03T10:45:25;21.50;78.90
2957;DHT22;1488;51.548;7.222;2023-04-03T10:48:01;21.50;78.80
2957;DHT22;1488;51.548;7.222;2023-04-03T10:50:38;21.60;79.20
2957;DHT22;1488;51.548;7.222;2023-04-03T10:53:13;21.70;79.50
2957;DHT22;1488;51.548;7.222;2023-04-03T10:55:48;21.60;79.30
2957;DHT22;1488;51.548;7.222;2023-04-03T10:58:21;21.60;78.80
2957;DHT22;1488;51.548;7.222;2023-04-03T11:00:55;21.60;78.20
2957;DHT22;1488;51.548;7.222;2023-04-03T11:03:30;21.70;78.20
2957;DHT22;1488;51.548;7.222;2023-04-03T11:06:02;21.70;78.50
2957;DHT22;1488;51.548;7.222;2023-04-03T11:08:34;21.70;78.40
2957;DHT22;1488;51.548;7.222;2023-04-03T11:11:06;21.80;79.00
2957;DHT22;1488;51.548;7.222;2023-04-03T11:13:40;21.80;79.00
2957;DHT22;1488;51.548;7.222;2023-04-03T11:16:13;21.90;78.50
2957;DHT22;1488;51.548;7.222;2023-04-03T11:18:45;21.80;78.50
2957;DHT22;1488;51.548;7.222;2023-04-03T11:21:17;21.80;78.40
2957;DHT22;1488;51.548;7.222;2023-04-03T11:23:48;21.80;78.50
2957;DHT22;1488;51.548;7.222;2023-04-03T11:26:18;21.80;78.60
2957;DHT22;1488;51.548;7.222;2023-04-03T11:28:46;21.90;78.30
2957;DHT22;1488;51.548;7.222;2023-04-03T11:31:41;21.90;78.80
2957;DHT22;1488;51.548;7.222;2023-04-03T11:34:21;22.00;78.80
2957;DHT22;1488;51.548;7.222;2023-04-03T11:36:52;22.00;79.00
2957;DHT22;1488;51.548;7.222;2023-04-03T11:39:23;22.00;79.10
2957;DHT22;1488;51.548;7.222;2023-04-03T11:41:50;22.00;79.10
2957;DHT22;1488;51.548;7.222;2023-04-03T11:44:35;22.00;79.20
2957;DHT22;1488;51.548;7.222;2023-04-03T11:47:06;22.10;79.40
2957;DHT22;1488;51.548;7.222;2023-04-03T11:49:56;22.00;79.30
2957;DHT22;1488;51.548;7.222;2023-04-03T11:52:59;22.30;79.80
2957;DHT22;1488;51.548;7.222;2023-04-03T11:55:53;21.90;79.70
2957;DHT22;1488;51.548;7.222;2023-04-03T11:58:22;22.10;80.10
2957;DHT22;1488;51.548;7.222;2023-04-03T12:00:55;22.10;80.20
2957;DHT22;1488;51.548;7.222;2023-04-03T12:06:42;22.20;80.30
2957;DHT22;1488;51.548;7.222;2023-04-03T12:09:23;22.20;80.40
2957;DHT22;1488;51.548;7.222;2023-04-03T12:11:51;22.20;80.70
2957;DHT22;1488;51.548;7.222;2023-04-03T12:14:18;22.20;80.70
2957;DHT22;1488;51.548;7.222;2023-04-03T12:16:48;22.10;79.80
2957;DHT22;1488;51.548;7.222;2023-04-03T12:19:34;22.00;72.70
2957;DHT22;1488;51.548;7.222;2023-04-03T12:22:10;22.00;78.00
2957;DHT22;1488;51.548;7.222;2023-04-03T12:24:38;22.00;77.70
2957;DHT22;1488;51.548;7.222;2023-04-03T12:27:27;22.00;78.00
2957;DHT22;1488;51.548;7.222;2023-04-03T12:30:05;22.10;78.20
2957;DHT22;1488;51.548;7.222;2023-04-03T12:32:45;22.10;78.20
2957;DHT22;1488;51.548;7.222;2023-04-03T12:35:26;22.10;78.00
2957;DHT22;1488;51.548;7.222;2023-04-03T12:41:10;22.20;78.50
2957;DHT22;1488;51.548;7.222;2023-04-03T12:43:49;22.20;78.50
2957;DHT22;1488;51.548;7.222;2023-04-03T12:46:22;22.20;79.50
2957;DHT22;1488;51.548;7.222;2023-04-03T12:48:51;22.10;72.80
2957;DHT22;1488;51.548;7.222;2023-04-03T12:51:24;22.00;75.70
2957;DHT22;1488;51.548;7.222;2023-04-03T12:53:58;22.00;76.00
2957;DHT22;1488;51.548;7.222;2023-04-03T12:56:28;21.90;75.90
2957;DHT22;1488;51.548;7.222;2023-04-03T12:59:12;21.90;71.60
2957;DHT22;1488;51.548;7.222;2023-04-03T13:01:42;21.70;72.60
2957;DHT22;1488;51.548;7.222;2023-04-03T13:04:10;21.70;72.90
2957;DHT22;1488;51.548;7.222;2023-04-03T13:06:41;21.60;73.00
2957;DHT22;1488;51.548;7.222;2023-04-03T13:09:19;21.60;74.00
2957;DHT22;1488;51.548;7.222;2023-04-03T13:11:49;21.60;73.50
2957;DHT22;1488;51.548;7.222;2023-04-03T13:14:19;21.60;73.50
2957;DHT22;1488;51.548;7.222;2023-04-03T13:16:54;21.70;73.50
2957;DHT22;1488;51.548;7.222;2023-04-03T13:19:24;21.70;73.40
2957;DHT22;1488;51.548;7.222;2023-04-03T13:21:59;21.80;73.60
2957;DHT22;1488;51.548;7.222;2023-04-03T13:24:28;21.80;73.70
2957;DHT22;1488;51.548;7.222;2023-04-03T13:26:56;21.90;73.80
2957;DHT22;1488;51.548;7.222;2023-04-03T13:29:31;21.90;73.80
2957;DHT22;1488;51.548;7.222;2023-04-03T13:31:59;21.90;74.10
2957;DHT22;1488;51.548;7.222;2023-04-03T13:34:29;21.90;74.20
2957;DHT22;1488;51.548;7.222;2023-04-03T13:37:03;21.90;74.30
2957;DHT22;1488;51.548;7.222;2023-04-03T13:39:32;21.90;74.50
2957;DHT22;1488;51.548;7.222;2023-04-03T13:41:59;21.90;74.40
2957;DHT22;1488;51.548;7.222;2023-04-03T13:44:33;21.90;74.60
2957;DHT22;1488;51.548;7.222;2023-04-03T13:47:13;22.00;75.10
2957;DHT22;1488;51.548;7.222;2023-04-03T13:49:43;22.00;75.10
2957;DHT22;1488;51.548;7.222;2023-04-03T13:52:27;21.90;75.20
2957;DHT22;1488;51.548;7.222;2023-04-03T13:54:56;22.00;75.60
2957;DHT22;1488;51.548;7.222;2023-04-03T13:57:24;22.00;75.60
2957;DHT22;1488;51.548;7.222;2023-04-03T13:59:51;22.00;75.30
2957;DHT22;1488;51.548;7.222;2023-04-03T14:02:22;22.00;75.10
2957;DHT22;1488;51.548;7.222;2023-04-03T14:04:54;22.00;75.20
2957;DHT22;1488;51.548;7.222;2023-04-03T14:07:25;22.00;75.20
2957;DHT22;1488;51.548;7.222;2023-04-03T14:09:52;22.00;75.10
2957;DHT22;1488;51.548;7.222;2023-04-03T14:12:25;22.00;75.20
2957;DHT22;1488;51.548;7.222;2023-04-03T14:14:53;22.00;75.40
2957;DHT22;1488;51.548;7.222;2023-04-03T14:17:23;22.00;75.40
2957;DHT22;1488;51.548;7.222;2023-04-03T14:19:51;21.90;75.40
2957;DHT22;1488;51.548;7.222;2023-04-03T14:22:21;21.90;75.40
2957;DHT22;1488;51.548;7.222;2023-04-03T14:24:51;22.00;75.50
2957;DHT22;1488;51.548;7.222;2023-04-03T14:27:21;21.90;75.20
2957;DHT22;1488;51.548;7.222;2023-04-03T14:29:48;22.00;75.20
2957;DHT22;1488;51.548;7.222;2023-04-03T14:32:17;22.00;75.30
2957;DHT22;1488;51.548;7.222;2023-04-03T14:34:45;22.00;75.30
2957;DHT22;1488;51.548;7.222;2023-04-03T14:37:14;22.00;75.00
2957;DHT22;1488;51.548;7.222;2023-04-03T14:39:42;22.10;75.00
2957;DHT22;1488;51.548;7.222;2023-04-03T14:42:15;22.10;74.80
2957;DHT22;1488;51.548;7.222;2023-04-03T14:44:42;22.20;74.90
2957;DHT22;1488;51.548;7.222;2023-04-03T14:47:11;22.20;74.70
2957;DHT22;1488;51.548;7.222;2023-04-03T14:49:38;22.10;74.20
2957;DHT22;1488;51.548;7.222;2023-04-03T14:52:05;22.00;70.50
2957;DHT22;1488;51.548;7.222;2023-04-03T14:54:31;22.00;73.60
2957;DHT22;1488;51.548;7.222;2023-04-03T14:56:59;22.10;73.30
2957;DHT22;1488;51.548;7.222;2023-04-03T14:59:29;21.90;72.70
2957;DHT22;1488;51.548;7.222;2023-04-03T15:01:57;22.00;72.60
2957;DHT22;1488;51.548;7.222;2023-04-03T15:04:24;22.00;72.70
2957;DHT22;1488;51.548;7.222;2023-04-03T15:06:51;21.90;72.70
2957;DHT22;1488;51.548;7.222;2023-04-03T15:09:20;21.80;72.40
2957;DHT22;1488;51.548;7.222;2023-04-03T15:11:47;21.80;72.40
2957;DHT22;1488;51.548;7.222;2023-04-03T15:14:14;21.80;72.50
2957;DHT22;1488;51.548;7.222;2023-04-03T15:16:43;21.90;72.70
2957;DHT22;1488;51.548;7.222;2023-04-03T15:19:10;21.80;72.80
2957;DHT22;1488;51.548;7.222;2023-04-03T15:21:37;21.80;72.90
2957;DHT22;1488;51.548;7.222;2023-04-03T15:24:04;21.90;73.00
2957;DHT22;1488;51.548;7.222;2023-04-03T15:26:31;21.80;72.80
2957;DHT22;1488;51.548;7.222;2023-04-03T15:28:58;21.70;73.10
2957;DHT22;1488;51.548;7.222;2023-04-03T15:31:25;21.80;73.10
2957;DHT22;1488;51.548;7.222;2023-04-03T15:33:53;21.70;72.80
2957;DHT22;1488;51.548;7.222;2023-04-03T15:36:20;21.70;72.80
2957;DHT22;1488;51.548;7.222;2023-04-03T15:38:47;21.70;73.00
2957;DHT22;1488;51.548;7.222;2023-04-03T15:41:14;21.70;73.20
2957;DHT22;1488;51.548;7.222;2023-04-03T15:43:40;21.60;73.10
2957;DHT22;1488;51.548;7.222;2023-04-03T15:46:08;21.60;72.90
2957;DHT22;1488;51.548;7.222;2023-04-03T15:48:35;21.70;73.00
2957;DHT22;1488;51.548;7.222;2023-04-03T15:51:05;21.60;73.00
2957;DHT22;1488;51.548;7.222;2023-04-03T15:53:32;21.60;73.30
2957;DHT22;1488;51.548;7.222;2023-04-03T15:55:58;21.60;73.30
2957;DHT22;1488;51.548;7.222;2023-04-03T15:58:25;21.60;73.40
2957;DHT22;1488;51.548;7.222;2023-04-03T16:00:52;21.60;73.50
2957;DHT22;1488;51.548;7.222;2023-04-03T16:03:20;21.60;73.50
2957;DHT22;1488;51.548;7.222;2023-04-03T16:05:48;21.50;73.40
2957;DHT22;1488;51.548;7.222;2023-04-03T16:08:17;21.60;73.40
2957;DHT22;1488;51.548;7.222;2023-04-03T16:10:43;21.50;73.60
2957;DHT22;1488;51.548;7.222;2023-04-03T16:13:12;21.50;72.20
2957;DHT22;1488;51.548;7.222;2023-04-03T16:15:39;21.50;73.60
2957;DHT22;1488;51.548;7.222;2023-04-03T16:18:07;21.40;73.70
2957;DHT22;1488;51.548;7.222;2023-04-03T16:20:35;21.50;74.80
2957;DHT22;1488;51.548;7.222;2023-04-03T16:23:02;21.50;74.00
2957;DHT22;1488;51.548;7.222;2023-04-03T16:25:31;21.40;74.00
2957;DHT22;1488;51.548;7.222;2023-04-03T16:27:58;21.50;73.60
2957;DHT22;1488;51.548;7.222;2023-04-03T16:30:25;21.50;73.70
2957;DHT22;1488;51.548;7.222;2023-04-03T16:32:52;21.40;72.50
2957;DHT22;1488;51.548;7.222;2023-04-03T16:35:21;21.30;71.60
2957;DHT22;1488;51.548;7.222;2023-04-03T16:37:47;21.30;73.10
2957;DHT22;1488;51.548;7.222;2023-04-03T16:40:15;21.30;73.50
2957;DHT22;1488;51.548;7.222;2023-04-03T16:42:44;21.30;73.60
2957;DHT22;1488;51.548;7.222;2023-04-03T16:45:11;21.20;73.40